Time;durP1;ratioP1;P1;durP2;ratioP2;P2;SDS_P1;SDS_P2;PMS_P1;PMS_P2;Temp;Humidity;BMP_temperature;BMP_pressure;BME280_temperature;BME280_humidity;BME280_pressure;Samples;Min_cycle;Max_cycle;Signal;HPM_P1;HPM_P2
2022/07/31 05:00:42;;;;;;;8.53;5.60;;;20.10;97.20;;;;;;1708175;29;20183;-75
2022/07/31 05:01:33;;;;;;;5.38;4.97;;;20.20;97.20;;;;;;1708124;29;20203;-75
2022/07/31 05:02:24;;;;;;;7.13;5.40;;;20.20;97.20;;;;;;1708123;28;20203;-75
2022/07/31 05:03:15;;;;;;;5.90;5.30;;;20.20;97.20;;;;;;1708113;29;20589;-75
2022/07/31 05:04:08;;;;;;;5.50;4.80;;;20.20;97.20;;;;;;1708089;29;20203;-76
2022/07/31 05:04:59;;;;;;;5.20;4.70;;;20.20;97.20;;;;;;1708107;29;20207;-76
2022/07/31 05:05:50;;;;;;;7.17;5.67;;;20.20;97.20;;;;;;1708131;29;20199;-76
2022/07/31 05:06:44;;;;;;;6.60;4.72;;;20.20;97.20;;;;;;1707606;28;20210;-75
2022/07/31 05:07:35;;;;;;;5.68;5.07;;;20.20;97.20;;;;;;1707453;29;20579;-76
2022/07/31 05:08:26;;;;;;;7.53;4.97;;;20.20;97.20;;;;;;1707887;29;20787;-76
2022/07/31 05:09:19;;;;;;;4.77;4.37;;;20.20;97.20;;;;;;1708182;28;20538;-76
2022/07/31 05:11:21;;;;;;;7.68;4.72;;;20.30;97.20;;;;;;1708042;29;20230;-76
2022/07/31 05:11:21;;;;;;;5.35;4.85;;;20.30;97.20;;;;;;1708004;28;20203;-75
2022/07/31 05:12:13;;;;;;;5.93;5.27;;;20.30;97.20;;;;;;1709002;28;20285;-76
2022/07/31 05:13:04;;;;;;;5.30;4.80;;;20.30;97.20;;;;;;1708021;29;20217;-75
2022/07/31 05:13:56;;;;;;;5.07;4.57;;;20.30;97.20;;;;;;1708042;29;20294;-76
2022/07/31 05:14:48;;;;;;;5.50;5.00;;;20.30;97.20;;;;;;1708016;29;20225;-76
2022/07/31 05:15:39;;;;;;;6.60;5.15;;;20.30;97.20;;;;;;1708077;29;20582;-75
2022/07/31 05:16:33;;;;;;;4.90;4.43;;;20.30;97.20;;;;;;1707952;29;20293;-75
2022/07/31 05:17:24;;;;;;;4.97;4.47;;;20.30;97.20;;;;;;1708031;29;20215;-76
2022/07/31 05:18:16;;;;;;;4.97;4.57;;;20.40;97.20;;;;;;1707829;29;20281;-76
2022/07/31 05:19:07;;;;;;;4.95;4.55;;;20.40;97.20;;;;;;1707980;29;20221;-75
2022/07/31 05:19:58;;;;;;;4.70;4.30;;;20.40;97.20;;;;;;1707970;29;20226;-75
2022/07/31 05:20:49;;;;;;;5.47;4.30;;;20.40;97.20;;;;;;1708069;29;20206;-75
2022/07/31 05:21:41;;;;;;;5.43;4.47;;;20.40;97.20;;;;;;1708026;29;20206;-75
2022/07/31 05:22:32;;;;;;;4.55;4.15;;;20.40;97.20;;;;;;1708034;29;20667;-76
2022/07/31 05:23:25;;;;;;;5.57;5.07;;;20.40;97.20;;;;;;1707973;29;20674;-75
2022/07/31 05:24:16;;;;;;;6.50;5.07;;;20.40;97.20;;;;;;1708001;29;20205;-76
2022/07/31 05:25:08;;;;;;;7.53;4.53;;;20.40;97.20;;;;;;1708016;29;20206;-75
2022/07/31 05:26:00;;;;;;;5.38;4.38;;;20.40;97.20;;;;;;1707976;29;20666;-75
2022/07/31 05:26:52;;;;;;;5.15;4.63;;;20.40;97.20;;;;;;1707725;29;20198;-76
2022/07/31 05:27:43;;;;;;;7.53;4.82;;;20.40;97.20;;;;;;1707907;29;20203;-75
2022/07/31 05:28:35;;;;;;;5.50;5.00;;;20.40;97.20;;;;;;1709350;28;20261;-75
2022/07/31 05:29:26;;;;;;;5.22;4.45;;;20.40;97.20;;;;;;1714585;28;20214;-76
2022/07/31 05:30:17;;;;;;;5.28;4.30;;;20.40;97.20;;;;;;1714499;28;20222;-75
2022/07/31 05:31:10;;;;;;;4.60;4.20;;;20.40;97.20;;;;;;1714685;28;20281;-75
2022/07/31 05:32:03;;;;;;;4.53;4.13;;;20.40;97.20;;;;;;1714565;28;20212;-75
2022/07/31 05:32:54;;;;;;;5.50;4.32;;;20.50;97.20;;;;;;1714544;28;20217;-75
2022/07/31 05:33:47;;;;;;;6.53;4.30;;;20.50;97.20;;;;;;1714640;28;20288;-75
2022/07/31 05:34:39;;;;;;;4.55;4.10;;;20.50;97.20;;;;;;1714533;28;20228;-75
2022/07/31 05:35:29;;;;;;;5.80;4.30;;;20.50;97.20;;;;;;1714623;28;20209;-76
2022/07/31 05:36:21;;;;;;;5.13;4.63;;;20.60;97.20;;;;;;1714490;28;20237;-75
2022/07/31 05:37:12;;;;;;;4.65;4.25;;;20.60;97.20;;;;;;1714274;28;20337;-76
2022/07/31 05:38:05;;;;;;;4.33;4.03;;;20.60;97.20;;;;;;1714342;28;20667;-76
2022/07/31 05:38:55;;;;;;;4.85;4.35;;;20.60;97.20;;;;;;1714548;28;20572;-76
2022/07/31 05:39:47;;;;;;;4.40;4.00;;;20.70;97.20;;;;;;1714584;28;20652;-75
2022/07/31 05:40:38;;;;;;;4.13;3.72;;;20.70;97.20;;;;;;1714538;28;20214;-75
2022/07/31 05:41:32;;;;;;;4.33;4.00;;;20.70;97.20;;;;;;1714616;28;20277;-75
2022/07/31 05:42:22;;;;;;;4.75;4.38;;;20.70;97.20;;;;;;1714513;28;20212;-75
2022/07/31 05:43:14;;;;;;;4.87;4.47;;;20.80;97.20;;;;;;1714527;28;20288;-75
2022/07/31 05:44:05;;;;;;;4.55;4.25;;;20.80;97.20;;;;;;1714511;28;20206;-76
2022/07/31 05:44:57;;;;;;;5.40;4.90;;;20.80;97.20;;;;;;1712854;28;20210;-75
2022/07/31 05:45:48;;;;;;;6.07;5.57;;;20.80;97.20;;;;;;1714534;28;20941;-75
2022/07/31 05:46:39;;;;;;;5.27;4.83;;;20.90;97.20;;;;;;1714164;28;20625;-75
2022/07/31 05:47:32;;;;;;;5.20;4.70;;;20.90;97.20;;;;;;1714559;28;20202;-75
2022/07/31 05:48:23;;;;;;;6.13;5.60;;;20.90;97.20;;;;;;1714334;28;20662;-75
2022/07/31 05:49:14;;;;;;;5.13;4.70;;;20.90;97.20;;;;;;1714390;28;20208;-76
2022/07/31 05:50:07;;;;;;;5.40;4.90;;;20.90;97.20;;;;;;1714492;28;20237;-75
2022/07/31 05:50:58;;;;;;;5.20;4.70;;;20.90;97.20;;;;;;1714450;28;20205;-76
2022/07/31 05:51:52;;;;;;;5.03;4.63;;;20.90;97.20;;;;;;1714505;28;20213;-75
2022/07/31 05:52:43;;;;;;;5.68;5.18;;;21.00;97.20;;;;;;1712715;28;20453;-75
2022/07/31 05:53:36;;;;;;;4.93;4.53;;;21.00;97.20;;;;;;1707811;29;20202;-75
2022/07/31 05:54:27;;;;;;;5.20;4.70;;;21.00;97.20;;;;;;1707825;29;20293;-75
2022/07/31 05:55:18;;;;;;;4.67;4.10;;;21.00;97.20;;;;;;1707769;28;20194;-75
2022/07/31 05:56:09;;;;;;;4.25;3.92;;;21.00;97.20;;;;;;1707716;29;20206;-75
2022/07/31 05:57:01;;;;;;;5.43;4.00;;;21.10;97.20;;;;;;1707436;29;20297;-75
2022/07/31 05:57:52;;;;;;;6.95;3.70;;;21.10;97.20;;;;;;1707620;29;20455;-75
2022/07/31 05:58:44;;;;;;;4.33;4.00;;;21.10;97.20;;;;;;1707687;29;20230;-75
2022/07/31 05:59:35;;;;;;;5.78;4.38;;;21.10;97.20;;;;;;1707747;29;20293;-76
2022/07/31 06:00:27;;;;;;;4.50;4.10;;;21.10;97.20;;;;;;1707739;29;20347;-75
2022/07/31 06:01:18;;;;;;;4.68;3.70;;;21.10;97.20;;;;;;1707735;29;20749;-75
2022/07/31 06:02:10;;;;;;;4.40;4.00;;;21.10;97.20;;;;;;1707819;29;20600;-75
2022/07/31 06:03:02;;;;;;;4.90;3.67;;;21.20;97.20;;;;;;1707860;29;20225;-75
2022/07/31 06:03:54;;;;;;;6.78;4.18;;;21.20;97.20;;;;;;1707802;28;20573;-75
2022/07/31 06:04:45;;;;;;;6.95;4.40;;;21.20;97.20;;;;;;1707699;29;20206;-76
2022/07/31 06:05:35;;;;;;;4.73;4.30;;;21.20;97.20;;;;;;1707685;29;20301;-76
2022/07/31 06:06:27;;;;;;;5.27;4.37;;;21.20;97.20;;;;;;1702616;28;20605;-75
2022/07/31 06:07:18;;;;;;;4.60;4.20;;;21.20;97.20;;;;;;1700884;29;20203;-75
2022/07/31 06:08:11;;;;;;;5.10;4.70;;;21.30;97.20;;;;;;1701059;29;20217;-75
2022/07/31 06:09:01;;;;;;;5.30;4.65;;;21.20;97.20;;;;;;1701116;29;20218;-75
2022/07/31 06:09:53;;;;;;;4.10;3.80;;;21.30;97.20;;;;;;1701101;29;20214;-75
2022/07/31 06:10:45;;;;;;;4.85;4.45;;;21.30;97.20;;;;;;1701121;29;20230;-75
2022/07/31 06:11:36;;;;;;;4.38;3.97;;;21.30;97.20;;;;;;1701105;29;20286;-75
2022/07/31 06:12:27;;;;;;;3.80;3.50;;;21.30;97.20;;;;;;1701144;29;20207;-75
2022/07/31 06:13:23;;;;;;;4.20;3.90;;;21.30;97.20;;;;;;1701126;29;20222;-75
2022/07/31 06:14:14;;;;;;;3.55;3.25;;;21.30;97.20;;;;;;1701259;29;20211;-76
2022/07/31 06:15:06;;;;;;;6.27;3.43;;;21.30;97.20;;;;;;1701040;29;20290;-75
2022/07/31 06:15:57;;;;;;;3.53;3.22;;;21.30;97.20;;;;;;1701027;29;20211;-75
2022/07/31 06:16:49;;;;;;;3.67;3.33;;;21.30;97.20;;;;;;1701865;29;20230;-75
2022/07/31 06:17:40;;;;;;;4.00;3.22;;;21.30;97.20;;;;;;1701017;29;20616;-75
2022/07/31 06:18:34;;;;;;;5.30;3.38;;;21.30;97.20;;;;;;1700826;29;20627;-75
2022/07/31 06:19:25;;;;;;;3.75;3.45;;;21.40;97.20;;;;;;1701100;29;20219;-76
2022/07/31 06:20:17;;;;;;;4.30;3.00;;;21.40;97.20;;;;;;1702669;28;20211;-76
2022/07/31 06:21:08;;;;;;;8.07;3.33;;;21.40;97.20;;;;;;1707588;29;20217;-75
2022/07/31 06:22:00;;;;;;;3.17;2.97;;;21.40;97.20;;;;;;1707564;28;20225;-76
2022/07/31 06:22:51;;;;;;;3.38;3.10;;;21.50;97.20;;;;;;1707769;29;20210;-76
2022/07/31 06:23:42;;;;;;;4.00;3.30;;;21.50;97.20;;;;;;1707619;29;20226;-75
2022/07/31 06:24:33;;;;;;;3.97;3.00;;;21.50;97.20;;;;;;1707610;29;20203;-76
2022/07/31 06:25:25;;;;;;;3.67;3.10;;;21.50;97.20;;;;;;1707525;29;20234;-76
2022/07/31 06:26:16;;;;;;;4.85;3.13;;;21.50;97.20;;;;;;1707525;29;20241;-76
2022/07/31 06:27:08;;;;;;;3.20;2.73;;;21.50;97.20;;;;;;1707293;29;20202;-76
2022/07/31 06:27:59;;;;;;;4.63;3.58;;;21.50;97.20;;;;;;1707378;29;20211;-76
2022/07/31 06:28:50;;;;;;;3.50;3.17;;;21.50;97.20;;;;;;1707536;29;20317;-76
2022/07/31 06:29:41;;;;;;;3.50;3.03;;;21.50;97.20;;;;;;1707552;29;20576;-75
2022/07/31 06:30:33;;;;;;;3.93;3.30;;;21.50;97.20;;;;;;1708687;28;20644;-76
2022/07/31 06:31:24;;;;;;;3.70;3.40;;;21.50;97.20;;;;;;1714179;28;20437;-75
2022/07/31 06:32:16;;;;;;;4.37;3.37;;;21.60;97.20;;;;;;1714196;28;20208;-75
2022/07/31 06:33:06;;;;;;;3.40;3.20;;;21.60;97.20;;;;;;1713885;28;20202;-76
2022/07/31 06:33:59;;;;;;;3.90;3.47;;;21.60;97.20;;;;;;1714182;28;20276;-75
2022/07/31 06:34:50;;;;;;;3.55;3.25;;;21.60;97.20;;;;;;1714226;28;20213;-75
2022/07/31 06:35:42;;;;;;;3.00;2.70;;;21.60;97.20;;;;;;1714183;28;20208;-75
2022/07/31 06:36:33;;;;;;;6.95;3.53;;;21.60;97.20;;;;;;1713786;28;20206;-75
2022/07/31 06:37:25;;;;;;;3.07;2.87;;;21.60;97.20;;;;;;1714228;28;20680;-75
2022/07/31 06:38:15;;;;;;;5.28;3.70;;;21.70;97.20;;;;;;1713839;28;20297;-76
2022/07/31 06:39:07;;;;;;;3.17;2.97;;;21.70;97.20;;;;;;1728093;23;20234;-70
2022/07/31 06:39:58;;;;;;;4.78;3.20;;;21.70;97.20;;;;;;1700973;29;20599;-70
2022/07/31 06:40:50;;;;;;;3.53;3.07;;;21.70;97.20;;;;;;1700824;29;20286;-70
2022/07/31 06:41:43;;;;;;;3.33;3.13;;;21.70;97.20;;;;;;1700824;29;20551;-70
2022/07/31 06:42:35;;;;;;;3.33;3.13;;;21.80;97.20;;;;;;1700910;29;20207;-70
2022/07/31 06:43:26;;;;;;;5.07;3.00;;;21.80;97.20;;;;;;1700852;29;20214;-70
2022/07/31 06:44:18;;;;;;;4.70;3.17;;;21.80;97.20;;;;;;1700880;29;20207;-70
2022/07/31 06:45:11;;;;;;;5.18;3.45;;;21.80;97.20;;;;;;1700792;29;20241;-70
2022/07/31 06:46:01;;;;;;;3.42;3.13;;;21.80;97.20;;;;;;1700747;29;20207;-70
2022/07/31 06:46:53;;;;;;;3.47;3.17;;;21.90;97.20;;;;;;1700633;29;20701;-70
2022/07/31 06:47:44;;;;;;;4.03;2.75;;;21.90;97.20;;;;;;1707323;29;20229;-70
2022/07/31 06:48:36;;;;;;;3.40;3.20;;;21.90;97.20;;;;;;1707362;29;20203;-70
2022/07/31 06:49:28;;;;;;;3.15;2.95;;;21.90;97.20;;;;;;1707472;29;20205;-70
2022/07/31 06:50:20;;;;;;;4.43;3.00;;;21.90;97.20;;;;;;1707373;29;20217;-69
2022/07/31 06:51:11;;;;;;;3.38;3.00;;;21.90;97.20;;;;;;1707308;29;20245;-70
2022/07/31 06:52:03;;;;;;;3.40;3.20;;;21.90;97.20;;;;;;1707460;29;20290;-69
2022/07/31 06:52:55;;;;;;;3.63;3.33;;;22.00;97.20;;;;;;1707474;29;20295;-70
2022/07/31 06:53:45;;;;;;;4.25;3.03;;;22.00;97.20;;;;;;1707383;29;20689;-70
2022/07/31 06:54:37;;;;;;;4.07;3.20;;;22.00;97.20;;;;;;1707394;29;20730;-69
2022/07/31 06:55:29;;;;;;;6.53;4.32;;;21.90;97.20;;;;;;1707043;29;20198;-70
2022/07/31 06:56:20;;;;;;;3.67;3.25;;;22.00;97.20;;;;;;1707284;29;20206;-70
2022/07/31 06:57:11;;;;;;;3.43;3.13;;;21.90;97.20;;;;;;1707126;29;20289;-70
2022/07/31 06:58:03;;;;;;;3.28;2.85;;;21.90;97.20;;;;;;1707301;29;20213;-70
2022/07/31 06:58:54;;;;;;;3.63;3.33;;;22.00;97.20;;;;;;1707391;28;20234;-70
2022/07/31 06:59:46;;;;;;;3.53;3.30;;;22.00;97.20;;;;;;1707361;28;20225;-70
2022/07/31 07:00:37;;;;;;;3.80;3.10;;;22.00;97.20;;;;;;1702911;29;20207;-70
2022/07/31 07:01:29;;;;;;;5.40;2.70;;;22.00;97.20;;;;;;1701308;29;20199;-69
2022/07/31 07:02:20;;;;;;;4.60;3.15;;;22.00;97.20;;;;;;1701370;29;20481;-69
2022/07/31 07:03:13;;;;;;;3.42;3.10;;;22.00;97.20;;;;;;1701152;29;20226;-69
2022/07/31 07:04:04;;;;;;;3.10;2.90;;;22.10;97.20;;;;;;1700996;29;20211;-70
2022/07/31 07:04:57;;;;;;;3.77;2.90;;;22.10;97.20;;;;;;1700857;29;20206;-70
2022/07/31 07:05:48;;;;;;;3.25;3.05;;;22.10;97.20;;;;;;1700675;29;20934;-70
2022/07/31 07:06:39;;;;;;;3.73;2.97;;;22.10;97.20;;;;;;1700491;29;20715;-70
2022/07/31 07:07:30;;;;;;;3.28;2.97;;;22.10;97.20;;;;;;1700862;29;20217;-69
2022/07/31 07:08:22;;;;;;;4.30;3.60;;;22.20;97.20;;;;;;1700614;29;20294;-70
2022/07/31 07:09:13;;;;;;;3.25;3.05;;;22.20;97.20;;;;;;1700728;29;20467;-70
2022/07/31 07:10:05;;;;;;;2.80;2.60;;;22.20;97.20;;;;;;1700689;29;20301;-70
2022/07/31 07:10:56;;;;;;;3.70;3.33;;;22.20;97.20;;;;;;1700654;29;20223;-69
2022/07/31 07:11:48;;;;;;;3.40;3.10;;;22.30;97.20;;;;;;1700780;29;20234;-70
2022/07/31 07:12:40;;;;;;;4.35;3.00;;;22.30;97.20;;;;;;1700722;29;20207;-69
2022/07/31 07:13:31;;;;;;;3.45;3.22;;;22.30;97.20;;;;;;1700771;29;20203;-70
2022/07/31 07:14:22;;;;;;;3.58;3.28;;;22.40;97.20;;;;;;1700707;29;20566;-70
2022/07/31 07:15:13;;;;;;;3.70;3.40;;;22.40;97.20;;;;;;1706850;29;20205;-70
2022/07/31 07:16:05;;;;;;;4.00;3.30;;;22.40;97.20;;;;;;1707256;29;20774;-70
2022/07/31 07:16:56;;;;;;;3.75;3.40;;;22.50;97.20;;;;;;1707074;29;20217;-70
2022/07/31 07:17:47;;;;;;;3.60;3.30;;;22.50;97.20;;;;;;1707254;29;20213;-70
2022/07/31 07:18:38;;;;;;;5.70;3.53;;;22.50;97.20;;;;;;1706915;29;20205;-70
2022/07/31 07:19:30;;;;;;;3.47;3.20;;;22.60;97.20;;;;;;1707366;29;20230;-69
2022/07/31 07:20:22;;;;;;;3.58;2.88;;;22.60;97.20;;;;;;1707299;29;20202;-70
2022/07/31 07:21:14;;;;;;;3.47;3.17;;;22.70;97.20;;;;;;1707362;28;20264;-70
2022/07/31 07:22:05;;;;;;;3.40;3.15;;;22.80;97.20;;;;;;1707255;29;20202;-70
2022/07/31 07:22:57;;;;;;;3.47;2.93;;;22.80;97.20;;;;;;1707392;28;20234;-70
2022/07/31 07:23:48;;;;;;;3.00;2.80;;;22.80;97.20;;;;;;1707295;29;20960;-69
2022/07/31 07:24:39;;;;;;;3.33;3.03;;;22.90;97.20;;;;;;1707328;29;20765;-70
2022/07/31 07:25:30;;;;;;;3.22;2.92;;;22.90;97.20;;;;;;1707379;29;20225;-70
2022/07/31 07:26:22;;;;;;;3.47;3.20;;;23.00;97.20;;;;;;1707212;29;20198;-70
2022/07/31 07:27:14;;;;;;;3.30;3.00;;;23.00;97.20;;;;;;1706730;28;20447;-70
2022/07/31 07:28:04;;;;;;;4.30;3.15;;;23.00;97.20;;;;;;1707256;29;20203;-70
2022/07/31 07:28:56;;;;;;;3.03;2.73;;;23.10;97.20;;;;;;1707290;29;20301;-70
2022/07/31 07:29:47;;;;;;;3.35;2.70;;;23.10;97.20;;;;;;1707467;28;20210;-70
2022/07/31 07:30:39;;;;;;;3.93;3.07;;;23.10;97.20;;;;;;1708990;29;20281;-69
2022/07/31 07:31:30;;;;;;;3.22;2.85;;;23.20;97.20;;;;;;1707824;29;20223;-70
2022/07/31 07:32:22;;;;;;;3.50;3.20;;;23.20;97.20;;;;;;1709472;29;20288;-69
2022/07/31 07:33:12;;;;;;;3.40;3.10;;;23.20;97.20;;;;;;1709487;29;20442;-69
2022/07/31 07:34:07;;;;;;;3.20;2.80;;;23.20;97.20;;;;;;1709434;28;20210;-70
2022/07/31 07:34:58;;;;;;;3.58;3.35;;;23.20;97.20;;;;;;1709503;28;20225;-69
2022/07/31 07:35:51;;;;;;;3.57;3.27;;;23.20;97.20;;;;;;1709488;28;20285;-70
2022/07/31 07:36:42;;;;;;;2.95;2.75;;;23.30;97.20;;;;;;1709152;29;20213;-69
2022/07/31 07:37:33;;;;;;;5.13;2.60;;;23.30;97.20;;;;;;1709504;29;20277;-70
2022/07/31 07:38:24;;;;;;;2.85;2.65;;;23.30;97.20;;;;;;1709363;28;20214;-70
2022/07/31 07:39:16;;;;;;;3.70;3.40;;;23.30;97.20;;;;;;1709323;29;20317;-69
2022/07/31 07:40:08;;;;;;;4.15;3.42;;;23.40;97.20;;;;;;1709383;29;20817;-69
2022/07/31 07:41:00;;;;;;;5.57;3.40;;;23.40;97.20;;;;;;1709580;29;20674;-70
2022/07/31 07:41:51;;;;;;;3.00;2.80;;;23.40;97.20;;;;;;1709458;29;20213;-70
2022/07/31 07:42:43;;;;;;;5.95;3.20;;;23.50;97.20;;;;;;1709383;29;20198;-69
2022/07/31 07:43:34;;;;;;;3.70;3.00;;;23.50;97.20;;;;;;1709457;29;20209;-69
2022/07/31 07:44:26;;;;;;;4.23;3.13;;;23.50;97.20;;;;;;1709390;29;20194;-69
2022/07/31 07:45:17;;;;;;;3.78;3.13;;;23.50;97.20;;;;;;1709411;28;20213;-70
2022/07/31 07:46:09;;;;;;;3.28;3.05;;;23.50;97.20;;;;;;1709446;29;20289;-70
2022/07/31 07:47:00;;;;;;;5.10;3.10;;;23.50;97.20;;;;;;1709123;28;20214;-70
2022/07/31 07:47:51;;;;;;;4.87;3.30;;;23.60;97.20;;;;;;1709106;28;20289;-70
2022/07/31 07:48:42;;;;;;;3.40;3.10;;;23.60;97.20;;;;;;1707641;29;20198;-70
2022/07/31 07:49:34;;;;;;;3.13;2.90;;;23.60;97.20;;;;;;1709509;29;20205;-69
2022/07/31 07:50:25;;;;;;;2.83;2.63;;;23.60;97.20;;;;;;1709393;29;20268;-69
2022/07/31 07:51:19;;;;;;;2.80;2.60;;;23.70;97.20;;;;;;1709380;28;20222;-69
2022/07/31 07:52:11;;;;;;;3.20;3.00;;;23.70;97.20;;;;;;1709424;28;20446;-70
2022/07/31 07:53:02;;;;;;;3.63;3.15;;;23.70;97.20;;;;;;1709384;28;20276;-70
2022/07/31 07:53:53;;;;;;;3.27;3.00;;;23.70;97.20;;;;;;1709437;29;20206;-70
2022/07/31 07:54:44;;;;;;;2.75;2.53;;;23.70;97.20;;;;;;1709355;28;20209;-70
2022/07/31 07:55:36;;;;;;;2.73;2.53;;;23.70;97.20;;;;;;1709460;29;20285;-70
2022/07/31 07:56:27;;;;;;;3.85;3.55;;;23.70;97.20;;;;;;1709323;29;20446;-70
2022/07/31 07:57:20;;;;;;;2.73;2.53;;;23.80;97.20;;;;;;1709262;28;20206;-70
2022/07/31 07:58:11;;;;;;;2.95;2.75;;;23.80;97.20;;;;;;1709297;29;20221;-70
2022/07/31 07:59:02;;;;;;;2.97;2.77;;;23.80;97.20;;;;;;1709292;29;20301;-69
2022/07/31 07:59:54;;;;;;;2.95;2.65;;;23.80;97.20;;;;;;1709463;28;20245;-70
2022/07/31 08:00:45;;;;;;;3.00;2.80;;;23.80;97.20;;;;;;1709345;28;20206;-70
2022/07/31 08:01:36;;;;;;;3.22;2.90;;;23.80;97.20;;;;;;1709408;29;20569;-70
2022/07/31 08:02:28;;;;;;;3.63;2.97;;;23.90;97.20;;;;;;1708761;29;20309;-70
2022/07/31 08:03:18;;;;;;;3.22;2.92;;;23.90;97.20;;;;;;1702816;29;20206;-70
2022/07/31 08:04:10;;;;;;;3.00;2.80;;;23.90;97.20;;;;;;1702708;29;20199;-70
2022/07/31 08:05:01;;;;;;;3.17;2.90;;;23.90;97.20;;;;;;1702865;29;20690;-70
2022/07/31 08:05:53;;;;;;;5.53;2.90;;;23.90;97.20;;;;;;1702782;29;20637;-70
2022/07/31 08:06:46;;;;;;;3.33;2.70;;;23.90;97.20;;;;;;1702468;29;20206;-69
2022/07/31 08:07:38;;;;;;;2.92;2.72;;;23.90;97.20;;;;;;1702782;29;20214;-70
2022/07/31 08:08:30;;;;;;;3.30;3.00;;;23.90;97.20;;;;;;1702698;29;20285;-69
2022/07/31 08:09:22;;;;;;;3.10;2.90;;;23.90;97.20;;;;;;1702617;29;20230;-70
2022/07/31 08:10:17;;;;;;;2.72;2.53;;;23.90;97.20;;;;;;1702798;29;20203;-69
2022/07/31 08:11:08;;;;;;;3.85;2.70;;;23.90;97.20;;;;;;1702689;29;20235;-69
2022/07/31 08:12:00;;;;;;;3.57;2.90;;;23.90;97.20;;;;;;1702780;29;20207;-70
2022/07/31 08:12:53;;;;;;;3.58;3.15;;;24.00;97.20;;;;;;1702756;29;20225;-70
2022/07/31 08:13:45;;;;;;;3.13;2.83;;;24.00;97.20;;;;;;1702739;29;20332;-70
2022/07/31 08:14:36;;;;;;;3.20;3.00;;;24.10;97.20;;;;;;1702717;29;20199;-70
2022/07/31 08:15:28;;;;;;;2.90;2.70;;;24.10;97.20;;;;;;1702823;29;20230;-70
2022/07/31 08:16:19;;;;;;;2.75;2.55;;;24.20;97.20;;;;;;1702737;29;20234;-70
2022/07/31 08:17:12;;;;;;;3.20;2.65;;;24.20;97.20;;;;;;1702475;29;20203;-70
2022/07/31 08:18:03;;;;;;;3.95;2.80;;;24.20;97.20;;;;;;1702639;29;20210;-69
2022/07/31 08:18:54;;;;;;;2.77;2.57;;;24.30;97.20;;;;;;1702647;29;20205;-70
2022/07/31 08:19:45;;;;;;;3.10;2.80;;;24.30;97.20;;;;;;1703605;29;20447;-70
2022/07/31 08:20:37;;;;;;;2.83;2.60;;;24.30;97.20;;;;;;1702759;29;20199;-70
2022/07/31 08:21:28;;;;;;;5.35;3.08;;;24.40;97.20;;;;;;1702656;29;20195;-70
2022/07/31 08:22:21;;;;;;;3.10;2.80;;;24.40;97.20;;;;;;1702710;29;20671;-70
2022/07/31 08:23:12;;;;;;;3.03;2.83;;;24.40;97.20;;;;;;1702745;29;20206;-70
2022/07/31 08:24:04;;;;;;;3.83;2.63;;;24.40;97.20;;;;;;1702694;29;20205;-70
2022/07/31 08:24:55;;;;;;;3.10;2.90;;;24.50;97.20;;;;;;1702667;29;20214;-70
2022/07/31 08:25:47;;;;;;;2.75;2.55;;;24.50;97.20;;;;;;1702756;29;20206;-70
2022/07/31 08:27:49;;;;;;;3.90;3.60;;;24.60;97.20;;;;;;1702833;29;20282;-70
2022/07/31 08:28:40;;;;;;;13.15;3.40;;;24.60;97.20;;;;;;1702566;29;20214;-70
2022/07/31 08:29:32;;;;;;;4.60;3.30;;;24.60;97.20;;;;;;1702735;29;20227;-70
2022/07/31 08:30:24;;;;;;;3.42;3.10;;;24.60;97.20;;;;;;1702705;29;20214;-70
2022/07/31 08:31:16;;;;;;;4.28;3.30;;;24.60;97.20;;;;;;1702656;29;20210;-70
2022/07/31 08:32:07;;;;;;;6.40;3.08;;;24.60;97.20;;;;;;1702654;29;20211;-69
2022/07/31 08:32:58;;;;;;;3.30;3.10;;;24.70;97.20;;;;;;1702726;29;20293;-70
2022/07/31 08:33:49;;;;;;;3.70;3.35;;;24.70;97.20;;;;;;1702572;29;20207;-70
2022/07/31 08:34:41;;;;;;;3.10;2.90;;;24.70;97.20;;;;;;1702704;29;20294;-70
2022/07/31 08:35:32;;;;;;;4.63;3.53;;;24.80;97.20;;;;;;1702710;29;20572;-70
2022/07/31 08:36:24;;;;;;;3.80;3.37;;;24.80;97.20;;;;;;1703593;29;20293;-70
2022/07/31 08:37:18;;;;;;;3.85;3.45;;;24.80;97.20;;;;;;1702433;29;20231;-70
2022/07/31 08:38:11;;;;;;;3.55;3.25;;;24.80;97.20;;;;;;1702558;29;20293;-70
2022/07/31 08:39:02;;;;;;;3.83;3.50;;;24.90;97.20;;;;;;1702502;29;20707;-70
2022/07/31 08:39:54;;;;;;;4.63;3.20;;;24.90;97.20;;;;;;1702605;29;20465;-70
2022/07/31 08:40:45;;;;;;;3.55;3.25;;;24.90;97.20;;;;;;1702624;29;20579;-70
2022/07/31 08:41:39;;;;;;;4.00;3.50;;;25.00;97.20;;;;;;1702201;29;20195;-70
2022/07/31 08:42:31;;;;;;;3.92;3.53;;;25.00;97.20;;;;;;1701684;29;20454;-70
2022/07/31 08:43:23;;;;;;;3.22;3.00;;;25.10;97.20;;;;;;1701594;29;20227;-69
2022/07/31 08:44:13;;;;;;;3.78;3.45;;;25.10;97.20;;;;;;1701647;29;20215;-70
2022/07/31 08:45:06;;;;;;;3.33;3.03;;;25.10;97.20;;;;;;1701633;29;20739;-69
2022/07/31 08:46:01;;;;;;;3.17;2.85;;;25.20;97.20;;;;;;1701596;29;20881;-69
2022/07/31 08:46:56;;;;;;;5.23;3.07;;;25.20;97.20;;;;;;1701328;29;20537;-70
2022/07/31 08:47:47;;;;;;;2.95;2.65;;;25.20;97.20;;;;;;1701579;29;20455;-70
2022/07/31 08:48:41;;;;;;;4.63;3.05;;;25.30;97.20;;;;;;1701512;29;20214;-69
2022/07/31 08:49:35;;;;;;;8.05;3.38;;;25.30;97.20;;;;;;1701720;29;20223;-70
2022/07/31 08:50:28;;;;;;;3.20;3.00;;;25.30;97.20;;;;;;1701592;29;20207;-70
2022/07/31 08:51:22;;;;;;;3.67;2.90;;;25.40;97.20;;;;;;1701415;29;20203;-70
2022/07/31 08:52:18;;;;;;;4.10;3.10;;;25.40;97.20;;;;;;1701631;29;20707;-70
2022/07/31 08:53:14;;;;;;;3.00;2.75;;;25.40;97.20;;;;;;1706985;29;20206;-70
2022/07/31 08:54:07;;;;;;;3.60;3.30;;;25.50;97.20;;;;;;1708312;29;20238;-70
2022/07/31 08:55:00;;;;;;;7.13;2.90;;;25.50;97.20;;;;;;1708169;29;20674;-70
2022/07/31 08:55:52;;;;;;;5.32;3.28;;;25.50;97.20;;;;;;1708054;29;20677;-70
2022/07/31 08:56:45;;;;;;;5.55;2.92;;;25.60;97.20;;;;;;1707970;29;20209;-70
2022/07/31 08:57:36;;;;;;;5.15;3.08;;;25.60;97.20;;;;;;1708162;29;20195;-70
2022/07/31 08:58:27;;;;;;;3.97;2.55;;;25.60;97.20;;;;;;1708122;29;20206;-70
2022/07/31 08:59:20;;;;;;;3.67;2.47;;;25.60;97.20;;;;;;1708030;29;20297;-70
2022/07/31 09:00:16;;;;;;;3.15;2.85;;;25.70;97.20;;;;;;1708075;29;20655;-70
2022/07/31 09:01:08;;;;;;;2.53;2.33;;;25.70;97.20;;;;;;1707828;28;20186;-70
2022/07/31 09:01:59;;;;;;;2.53;2.33;;;25.70;97.20;;;;;;1708162;29;20202;-70
2022/07/31 09:02:53;;;;;;;2.73;2.50;;;25.80;97.20;;;;;;1708052;29;20290;-70
2022/07/31 09:03:44;;;;;;;2.47;2.28;;;25.80;97.20;;;;;;1708090;29;20265;-70
2022/07/31 09:04:36;;;;;;;2.90;2.70;;;25.80;97.20;;;;;;1708193;29;20257;-70
2022/07/31 09:05:27;;;;;;;6.82;3.33;;;25.90;97.20;;;;;;1708204;28;20676;-69
2022/07/31 09:06:19;;;;;;;2.83;2.33;;;25.90;97.20;;;;;;1708015;28;20792;-70
2022/07/31 09:07:13;;;;;;;2.50;2.28;;;26.00;97.20;;;;;;1707822;29;20210;-70
2022/07/31 09:08:05;;;;;;;2.60;2.40;;;26.00;97.20;;;;;;1708012;29;20233;-70
2022/07/31 09:08:57;;;;;;;2.88;2.10;;;26.10;97.20;;;;;;1708043;28;20346;-69
2022/07/31 09:09:49;;;;;;;5.43;2.60;;;26.10;97.20;;;;;;1703403;29;20211;-69
2022/07/31 09:10:40;;;;;;;2.67;2.45;;;26.20;97.20;;;;;;1701451;29;20447;-70
2022/07/31 09:11:32;;;;;;;2.63;2.43;;;26.30;97.20;;;;;;1701449;29;20282;-70
2022/07/31 09:12:28;;;;;;;2.38;2.17;;;26.30;97.20;;;;;;1701361;29;20207;-70
2022/07/31 09:13:19;;;;;;;2.70;2.50;;;26.30;97.20;;;;;;1701487;29;20227;-70
2022/07/31 09:14:12;;;;;;;2.80;2.55;;;26.40;97.20;;;;;;1701438;29;20207;-69
2022/07/31 09:15:04;;;;;;;2.63;2.42;;;26.50;97.20;;;;;;1701451;29;20221;-69
2022/07/31 09:15:57;;;;;;;2.20;2.10;;;26.50;97.20;;;;;;1701378;29;20211;-70
2022/07/31 09:16:49;;;;;;;2.65;2.13;;;26.50;97.20;;;;;;1701131;29;20454;-69
2022/07/31 09:17:40;;;;;;;2.40;2.20;;;26.60;97.20;;;;;;1701338;29;20415;-70
2022/07/31 09:18:32;;;;;;;2.93;2.40;;;26.60;97.20;;;;;;1701384;29;20368;-70
2022/07/31 09:19:24;;;;;;;2.40;2.20;;;26.60;97.20;;;;;;1701390;29;20600;-70
2022/07/31 09:20:21;;;;;;;2.45;2.22;;;26.70;97.20;;;;;;1701443;29;20282;-70
2022/07/31 09:21:11;;;;;;;3.25;2.15;;;26.70;97.20;;;;;;1701358;29;20230;-70
2022/07/31 09:22:03;;;;;;;3.13;2.20;;;26.70;97.20;;;;;;1700697;29;20199;-70
2022/07/31 09:23:05;;;;;;;2.20;2.00;;;26.70;97.20;;;;;;1704969;29;20214;-70
2022/07/31 09:23:57;;;;;;;4.68;2.00;;;26.70;97.20;;;;;;1708095;29;20923;-70
2022/07/31 09:24:49;;;;;;;2.80;1.90;;;26.70;97.20;;;;;;1708079;29;20206;-70
2022/07/31 09:25:50;;;;;;;4.03;2.10;;;26.70;97.20;;;;;;1707934;29;20450;-70
2022/07/31 09:26:43;;;;;;;3.33;2.30;;;26.70;97.20;;;;;;1707744;28;20453;-70
2022/07/31 09:27:34;;;;;;;2.47;2.28;;;26.70;97.20;;;;;;1707926;29;20814;-70
2022/07/31 09:28:33;;;;;;;2.30;2.10;;;26.80;97.20;;;;;;1707970;29;20454;-70
2022/07/31 09:29:33;;;;;;;2.47;2.22;;;26.80;97.20;;;;;;1707956;28;20285;-70
2022/07/31 09:30:25;;;;;;;2.80;2.47;;;26.90;97.20;;;;;;1707965;29;20194;-70
2022/07/31 09:31:16;;;;;;;3.03;2.30;;;26.90;97.20;;;;;;1707891;29;20943;-70
2022/07/31 09:32:08;;;;;;;3.83;2.27;;;26.90;97.20;;;;;;1707840;29;20493;-70